Gwynn Oak, Maryland
Current Conditions -  °F | °C
As of 2:54 PM on Thursday 23 Oct 2014 (Local Time) from KBWI Reporting Station
Broken Clouds Broken Clouds  
Wind Chill: 61°   Ceiling: 4100
Heat Index: 61°   Visibility: 10mi
Dew Point: 45°   Wind: 16mph
Humidity: 56%   Direction: 310°NW
Pressure: 29.82"   Gusts: 24mph
Location:  39.32°N, 76.73°W
Report Text: KBWI 231854Z 31014G21KT 10SM BKN041 BKN090 16/07 A2982 RMK AO2 SLP099 T01610072
Loading
Personal Weather Stations






























Interactive Weather Map
Tropical Storm Tracking
New forecast layout! Learn more

10-Day Weather Forecast

Advertisements
Track Severe Weather on mobile